Hauptseite
METAR-TAF:

METAR-TAF

Flughäfen :

Fliegerhorst Hinterstoisser

Zeltweg, Österreich

Breite: 47-12N, Länge: 014-45E, Höhe: 677 m

Beobachtung

Neuester Wetterbericht von vor 5 Stunden und 6 Minuten, um 20:50 UTC
Wind 4 kt aus Süd/Südwest
Temperatur 18°C
Luftfeuchtigkeit 73%
Luftdruck 1015 hPa

METAR: LOXZ 202050Z 20004KT 15KM FEW070SC SCT300CI 18/13 Q1015

Zeit: 03:56 (01:56 UTC)

Prognose

Neuester Wetterbericht von vor 11 Stunden und 41 Minuten, um 14:15 UTC
Gültige Prognose vom 19 um 15 UTC bis 19 um 24 UTC
Wind 3 kt aus unterschiedlichen Richtungen
Sichtweite 10 km oder mehr
Leicht bewölkt in der Höhe von 7000 ft
Zeitweise
vom 19 um 15 UTC bis 19 um 18 UTC
Wind 8 kt aus Ost

TAF: LOXZ 191415Z 1915/1924 VRB03KT 9999 FEW070 TEMPO 1915/1918 09008KT

Wetterbeobachtungen und Prognosen von mehr als 4000 Flughäfen (METAR und TAF Bericht).

Die verfügbaren Stationen werden durch gelbe und rote Markierungen auf der Karte dargestellt.

Führen Sie die Maus auf sie, um den Namen der Station zu sehen.

Darauf klicken, um die Beobachtung von Wetterbeobachtungen und Prognosen zu sehen.

Um die Karte zu ändern : klicken Sie auf den grünen Tasten mit einem schwarzen Kreuz Zum Vergrößern, auf den grünen Button mit einem Gedankenstrich zu verkleinern, oder auf die grünen Pfeile für benachbarte Karten.


METAR-TAF: